Helmar, Illinois
Current Conditions -  °F | °C
As of 4:15 PM on Sunday 21 Dec 2014 (Local Time) from KC09 Reporting Station
Overcast Overcast  
Wind Chill: 30°   Ceiling: 3100
Heat Index: 37°   Visibility: 10mi
Dew Point: 32°   Wind: 10mph
Humidity: 83%   Direction: 170°S
Pressure: 30.07"   Gusts: NA
Location:  41.5124°N, 88.5214°W
Report Text: KC09 212215Z AUTO 17009KT 10SM OVC031 03/00 A3007 RMK AO2 T00280002
Loading
Personal Weather Stations






























Interactive Weather Map New forecast layout! Learn more

10-Day Weather Forecast

Advertisements
Track Severe Weather on mobile